Главная страница
METAR-TAF:

METAR-TAF

Аэропорты :

Phillip Goldston

Белиз, Белиз

широта: 17-32N, долгота: 088-18W, высота над уровнем моря: 5 м

Текущие метеонаблюдения

Эта сводка был подготовлена 21 минут назад, в 21:00 UTC
Ветер 7 Узел от восточный
Температура 29°C
Влажность 84%
Давление 1010 hPa
Видимость 10 км и более
Отдельные облака на высоте 1800 фута

METAR: MZBZ 202100Z 09007KT 9999 SCT018 29/26 A2986 Q1010 NOSIG RMK DIST CBTOP-W DIST SHWR-W

Время: 15:21 (21:21 UTC)

Прогноз

Эта сводка был подготовлена 6 часа и 21 минут назад, в 15:00 UTC
Прогноз действительный с 20-го 18 UTC до 21-го 18 UTC
Ветер 8 Узел от восточный
Видимость 10 км и более
небольшая облачность на высоте 2000 фута
Вероятность 30% :
временами
С 21-го 10 UTC до 21-го 15 UTC
Видимость: 5000 м
Рассеянная облачность на высоте 1500 фута
ливневые дожди

TAF: MZBZ 201500Z 2018/2118 08008KT 9999 FEW020 PROB30 TEMPO 2110/2115 5000 SHRA BKN015

Метеонаблюдения и прогнозы для более 4000 аэропортов (сводки METAR и TAF).

Имеющиеся станции представлены на карте желтыми и красными точками.

Чтобы увидеть название станции, наведите на нее мышь.

Затем щелкните, чтобы увидеть метеонаблюдения и метеопрогнозы.

Управление картой: чтобы увеличить масштаб, щелкните зеленые кнопки с черным крестиком; чтобы уменьшить масштаб, щелкните зеленую кнопку с тире; для просмотра соседних карт щелкайте зеленые стрелки.


METAR-TAF: